createdAt,value
2018-11-27T00:04:23.774Z,7.87
2018-11-27T00:07:13.173Z,7.77
2018-11-27T00:10:01.730Z,7.53
2018-11-27T00:12:51.192Z,7.37
2018-11-27T00:15:40.211Z,7.00
2018-11-27T00:18:29.255Z,7.50
2018-11-27T00:21:18.513Z,7.30
2018-11-27T00:24:07.722Z,6.73
2018-11-27T00:33:26.784Z,7.03
2018-11-27T00:36:16.023Z,6.83
2018-11-27T00:42:21.425Z,7.00
2018-11-27T00:45:30.140Z,7.10
2018-11-27T00:48:19.487Z,7.10
2018-11-27T00:51:08.833Z,7.17
2018-11-27T00:53:57.946Z,7.20
2018-11-27T00:56:47.121Z,7.30
2018-11-27T00:59:55.935Z,6.60
2018-11-27T01:02:44.994Z,7.30
2018-11-27T01:08:42.097Z,7.37
2018-11-27T01:11:31.443Z,6.90
2018-11-27T01:14:20.541Z,6.60
2018-11-27T01:17:08.892Z,7.07
2018-11-27T01:19:57.402Z,7.30
2018-11-27T01:22:46.128Z,6.93
2018-11-27T01:25:34.674Z,7.30
2018-11-27T01:28:23.472Z,7.43
2018-11-27T01:31:12.594Z,7.23
2018-11-27T01:34:00.935Z,7.33
2018-11-27T01:36:49.727Z,7.03
2018-11-27T01:39:39.050Z,7.20
2018-11-27T01:42:28.129Z,6.77
2018-11-27T01:45:17.272Z,7.40
2018-11-27T01:48:05.619Z,6.23
2018-11-27T01:50:54.194Z,7.00
2018-11-27T01:53:43.012Z,6.50
2018-11-27T01:56:31.387Z,6.90
2018-11-27T01:59:19.783Z,7.10
2018-11-27T02:02:08.400Z,7.53
2018-11-27T02:04:57.192Z,7.27
2018-11-27T02:07:45.970Z,7.50
2018-11-27T02:10:35.178Z,6.70
2018-11-27T02:13:23.558Z,7.07
2018-11-27T02:16:12.029Z,7.20
2018-11-27T02:19:00.480Z,7.20
2018-11-27T02:24:57.044Z,6.80
2018-11-27T02:27:46.253Z,6.50
2018-11-27T02:30:35.425Z,7.53
2018-11-27T02:33:23.778Z,7.13
2018-11-27T02:39:20.016Z,7.10
2018-11-27T02:42:08.365Z,7.27
2018-11-27T02:44:57.119Z,7.27
2018-11-27T02:47:46.516Z,7.20
2018-11-27T02:50:35.728Z,7.40
2018-11-27T02:59:54.089Z,6.83
2018-11-27T03:02:43.479Z,7.10
2018-11-27T03:05:51.828Z,6.63
2018-11-27T03:09:00.783Z,7.20
2018-11-27T03:11:50.049Z,7.40
2018-11-27T03:14:39.633Z,6.73
2018-11-27T03:23:53.615Z,6.87
2018-11-27T03:33:11.709Z,6.30
2018-11-27T03:42:25.340Z,6.87
2018-11-27T03:45:15.121Z,7.27
2018-11-27T03:48:04.592Z,6.87
2018-11-27T03:50:54.149Z,6.83
2018-11-27T03:57:03.800Z,6.90
2018-11-27T03:59:53.023Z,7.20
2018-11-27T04:02:42.569Z,7.00
2018-11-27T04:05:31.649Z,6.20
2018-11-27T04:11:28.619Z,6.30
2018-11-27T04:27:08.041Z,6.63
2018-11-27T04:40:40.362Z,7.10
2018-11-27T04:43:29.986Z,6.33
2018-11-27T04:49:27.321Z,7.10
2018-11-27T04:59:08.858Z,6.83
2018-11-27T05:01:57.949Z,7.30
2018-11-27T05:04:47.079Z,7.20
2018-11-27T05:07:38.284Z,7.60
2018-11-27T05:10:27.709Z,6.37
2018-11-27T05:13:16.990Z,6.40
2018-11-27T05:19:14.300Z,7.30
2018-11-27T05:22:03.669Z,7.07
2018-11-27T05:24:52.753Z,6.47
2018-11-27T05:27:42.483Z,6.83
2018-11-27T05:36:53.642Z,7.10
2018-11-27T05:42:52.288Z,6.63
2018-11-27T05:45:42.041Z,6.97
2018-11-27T05:48:31.083Z,6.77
2018-11-27T05:51:20.346Z,6.80
2018-11-27T05:54:09.953Z,6.50
2018-11-27T05:56:40.172Z,6.93
2018-11-27T05:59:09.985Z,6.87
2018-11-27T06:01:58.924Z,7.10
2018-11-27T06:08:02.292Z,6.80
2018-11-27T06:10:52.164Z,6.90
2018-11-27T06:13:41.165Z,6.97
2018-11-27T06:16:30.603Z,6.33
2018-11-27T06:19:20.145Z,6.40
2018-11-27T06:22:09.820Z,7.00
2018-11-27T06:28:07.556Z,6.20
2018-11-27T06:30:56.991Z,5.83
2018-11-27T06:33:47.029Z,6.73
2018-11-27T06:36:36.207Z,5.97
2018-11-27T06:39:25.375Z,6.43
2018-11-27T06:45:30.017Z,6.77
2018-11-27T06:48:18.380Z,6.80
2018-11-27T06:51:07.610Z,7.10
2018-11-27T07:00:19.183Z,6.93
2018-11-27T07:03:27.685Z,6.10
2018-11-27T07:06:16.710Z,6.70
2018-11-27T07:09:08.531Z,6.00
2018-11-27T07:15:32.656Z,6.70
2018-11-27T07:18:21.564Z,6.67
2018-11-27T07:30:48.249Z,6.77
2018-11-27T07:33:37.624Z,6.00
2018-11-27T07:36:26.858Z,5.83
2018-11-27T07:39:16.249Z,6.27
2018-11-27T07:45:20.798Z,6.00
2018-11-27T07:51:17.984Z,5.90
2018-11-27T07:54:06.634Z,6.40
2018-11-27T08:03:25.872Z,5.50
2018-11-27T08:09:27.070Z,7.00
2018-11-27T08:12:14.826Z,6.33
2018-11-27T08:18:12.525Z,6.47
2018-11-27T08:21:01.984Z,6.50
2018-11-27T08:23:51.590Z,6.00
2018-11-27T08:26:41.112Z,6.50
2018-11-27T08:32:44.900Z,5.87
2018-11-27T08:38:49.794Z,6.20
2018-11-27T08:48:01.918Z,6.13
2018-11-27T08:50:51.259Z,5.70
2018-11-27T08:54:23.205Z,4.33
2018-11-27T09:04:47.207Z,5.33
2018-11-27T09:10:53.383Z,5.23
2018-11-27T09:16:58.991Z,5.20
2018-11-27T09:19:48.395Z,5.33
2018-11-27T09:22:37.783Z,5.43
2018-11-27T09:25:26.992Z,5.07
2018-11-27T09:28:16.220Z,5.23
2018-11-27T09:34:20.041Z,5.70
2018-11-27T09:43:26.323Z,6.17
2018-11-27T09:46:15.475Z,5.77
2018-11-27T09:49:04.705Z,5.50
2018-11-27T09:58:49.867Z,6.10
2018-11-27T10:04:58.297Z,6.10
2018-11-27T10:08:09.560Z,6.00
2018-11-27T10:18:20.152Z,6.40
2018-11-27T10:28:17.906Z,6.10
2018-11-27T10:31:09.061Z,6.33
2018-11-27T10:37:12.914Z,5.63
2018-11-27T10:43:20.146Z,5.90
2018-11-27T10:46:08.622Z,6.30
2018-11-27T10:48:56.968Z,6.13
2018-11-27T10:51:45.859Z,5.60
2018-11-27T10:54:34.808Z,6.10
2018-11-27T11:01:00.624Z,6.67
2018-11-27T11:07:06.110Z,6.93
2018-11-27T11:09:56.336Z,7.40
2018-11-27T11:12:45.885Z,7.10
2018-11-27T11:15:35.261Z,7.20
2018-11-27T11:18:25.330Z,7.53
2018-11-27T11:21:16.313Z,8.13
2018-11-27T11:24:07.035Z,8.10
2018-11-27T11:26:56.681Z,7.93
2018-11-27T11:29:47.364Z,7.53
2018-11-27T11:36:04.775Z,8.17
2018-11-27T11:38:54.119Z,7.50
2018-11-27T11:41:45.535Z,8.37
2018-11-27T11:44:54.641Z,7.90
2018-11-27T11:47:47.320Z,7.23
2018-11-27T11:53:45.217Z,7.00
2018-11-27T11:56:34.390Z,7.47
2018-11-27T11:59:44.148Z,7.27
2018-11-27T12:02:34.847Z,8.40
2018-11-27T12:08:34.296Z,7.90
2018-11-27T12:14:33.193Z,7.40
2018-11-27T12:17:22.898Z,8.23
2018-11-27T12:20:31.637Z,8.33
2018-11-27T12:23:40.524Z,8.87
2018-11-27T12:26:29.753Z,9.20
2018-11-27T12:29:25.081Z,8.27
2018-11-27T12:35:28.942Z,9.20
2018-11-27T12:38:18.597Z,8.17
2018-11-27T12:41:10.320Z,9.40
2018-11-27T12:50:40.279Z,9.43
2018-11-27T12:53:29.307Z,9.17
2018-11-27T12:59:28.724Z,9.63
2018-11-27T13:02:17.660Z,9.17
2018-11-27T13:05:07.401Z,9.57
2018-11-27T13:08:16.749Z,9.23
2018-11-27T13:11:11.300Z,9.00
2018-11-27T13:13:58.219Z,9.77
2018-11-27T13:17:07.376Z,9.43
2018-11-27T13:19:58.083Z,9.17
2018-11-27T13:22:51.054Z,9.07
2018-11-27T13:26:00.629Z,9.23
2018-11-27T13:28:51.774Z,9.00
2018-11-27T13:35:15.561Z,8.17
2018-11-27T13:38:24.421Z,7.43
2018-11-27T13:47:36.532Z,7.27
2018-11-27T13:50:26.958Z,7.70
2018-11-27T13:53:17.577Z,7.10
2018-11-27T13:56:25.913Z,7.13
2018-11-27T13:59:14.747Z,6.87
2018-11-27T14:02:04.165Z,6.77
2018-11-27T14:05:13.008Z,8.30
2018-11-27T14:11:11.887Z,6.80
2018-11-27T14:21:03.941Z,6.90
2018-11-27T14:27:23.363Z,7.07
2018-11-27T14:30:32.567Z,7.13
2018-11-27T14:33:42.170Z,6.70
2018-11-27T14:36:53.601Z,7.58
2018-11-27T14:39:53.706Z,7.10
2018-11-27T14:49:15.400Z,7.17
2018-11-27T14:52:05.716Z,7.80
2018-11-27T15:01:26.993Z,7.63
2018-11-27T15:04:17.566Z,7.20
2018-11-27T15:10:18.703Z,8.13
2018-11-27T15:13:09.721Z,6.63
2018-11-27T15:16:20.393Z,7.30
2018-11-27T15:19:10.526Z,7.00
2018-11-27T15:25:10.761Z,7.00
2018-11-27T15:28:01.819Z,7.20
2018-11-27T15:34:23.210Z,7.67
2018-11-27T15:37:13.933Z,6.93
2018-11-27T15:46:34.021Z,7.37
2018-11-27T15:49:22.828Z,6.90
2018-11-27T15:55:29.104Z,6.70
2018-11-27T15:58:39.392Z,6.53
2018-11-27T16:01:49.976Z,7.70
2018-11-27T16:04:40.063Z,6.30
2018-11-27T16:10:47.979Z,7.03
2018-11-27T16:13:39.967Z,7.50
2018-11-27T16:16:31.176Z,7.50
2018-11-27T16:19:41.994Z,7.57
2018-11-27T16:22:53.317Z,7.20
2018-11-27T16:28:53.020Z,7.40
2018-11-27T16:31:45.848Z,7.83
2018-11-27T16:44:36.266Z,6.50
2018-11-27T16:50:41.721Z,6.60
2018-11-27T16:56:40.993Z,6.23
2018-11-27T17:00:24.475Z,6.50
2018-11-27T17:02:56.104Z,6.60
2018-11-27T17:05:27.494Z,6.50
2018-11-27T17:07:56.585Z,6.30
2018-11-27T17:10:28.817Z,6.20
2018-11-27T17:13:00.837Z,6.43
2018-11-27T17:15:31.610Z,6.33
2018-11-27T17:18:02.396Z,5.73
2018-11-27T17:20:34.972Z,5.83
2018-11-27T17:23:09.058Z,6.50
2018-11-27T17:25:40.199Z,5.80
2018-11-27T17:29:16.911Z,6.63
2018-11-27T17:31:47.123Z,6.30
2018-11-27T17:34:18.209Z,6.20
2018-11-27T17:36:50.087Z,6.20
2018-11-27T17:39:20.665Z,6.00
2018-11-27T17:41:50.914Z,5.90
2018-11-27T17:44:21.412Z,6.20
2018-11-27T17:46:53.477Z,5.70
2018-11-27T17:49:24.093Z,5.77
2018-11-27T17:51:53.110Z,5.57
2018-11-27T17:54:22.036Z,5.60
2018-11-27T17:56:50.994Z,5.47
2018-11-27T17:59:20.405Z,5.83
2018-11-27T18:01:50.575Z,5.33
2018-11-27T18:04:21.194Z,5.13
2018-11-27T18:06:52.226Z,6.00
2018-11-27T18:09:23.134Z,5.33
2018-11-27T18:11:55.806Z,5.50
2018-11-27T18:14:29.266Z,5.47
2018-11-27T18:17:00.896Z,5.27
2018-11-27T18:19:35.294Z,5.00
2018-11-27T18:22:11.670Z,5.00
2018-11-27T18:24:44.021Z,4.97
2018-11-27T18:27:20.417Z,4.67
2018-11-27T18:29:50.236Z,5.30
2018-11-27T18:32:20.597Z,5.00
2018-11-27T18:34:49.591Z,5.00
2018-11-27T18:37:20.017Z,4.47
2018-11-27T18:39:51.419Z,5.20
2018-11-27T18:42:20.469Z,5.37
2018-11-27T18:45:01.923Z,5.10
2018-11-27T18:47:33.795Z,4.60
2018-11-27T18:50:02.740Z,5.10
2018-11-27T18:52:35.082Z,5.47
2018-11-27T18:55:05.233Z,5.00
2018-11-27T18:57:35.141Z,5.80
2018-11-27T19:00:10.003Z,5.27
2018-11-27T19:02:40.397Z,5.47
2018-11-27T19:05:11.118Z,5.20
2018-11-27T19:07:42.922Z,5.43
2018-11-27T19:10:18.111Z,5.30
2018-11-27T19:12:48.601Z,5.40
2018-11-27T19:15:25.458Z,5.40
2018-11-27T19:17:59.018Z,5.10
2018-11-27T19:20:29.321Z,5.07
2018-11-27T19:22:59.511Z,5.23
2018-11-27T19:25:28.724Z,5.83
2018-11-27T19:27:59.496Z,5.73
2018-11-27T19:30:32.327Z,5.23
2018-11-27T19:33:00.778Z,5.30
2018-11-27T19:35:31.255Z,4.80
2018-11-27T19:38:01.405Z,4.70
2018-11-27T19:40:32.065Z,4.80
2018-11-27T19:43:02.332Z,4.97
2018-11-27T19:45:32.287Z,5.03
2018-11-27T19:48:02.726Z,5.00
2018-11-27T19:50:33.156Z,4.73
2018-11-27T19:54:10.119Z,5.30
2018-11-27T19:56:41.342Z,5.13
2018-11-27T19:59:10.398Z,5.03
2018-11-27T20:01:39.974Z,4.73
2018-11-27T20:04:11.134Z,4.70
2018-11-27T20:06:40.184Z,4.30
2018-11-27T20:09:11.073Z,5.10
2018-11-27T20:11:44.064Z,4.70
2018-11-27T20:14:15.346Z,5.20
2018-11-27T20:16:46.714Z,5.20
2018-11-27T20:19:16.684Z,5.07
2018-11-27T20:21:46.525Z,5.00
2018-11-27T20:24:18.864Z,5.07
2018-11-27T20:26:53.825Z,5.43
2018-11-27T20:29:25.527Z,5.17
2018-11-27T20:31:55.860Z,5.20
2018-11-27T20:34:27.150Z,4.87
2018-11-27T20:36:58.570Z,4.80
2018-11-27T20:39:33.356Z,4.83
2018-11-27T20:42:08.821Z,4.50
2018-11-27T20:44:41.065Z,4.77
2018-11-27T20:47:17.148Z,5.40
2018-11-27T20:49:50.981Z,5.27
2018-11-27T20:52:21.391Z,4.67
2018-11-27T20:54:51.877Z,4.97
2018-11-27T20:57:23.559Z,5.20
2018-11-27T20:59:53.896Z,4.63
2018-11-27T21:02:24.107Z,5.13
2018-11-27T21:04:53.911Z,5.30
2018-11-27T21:07:23.881Z,5.00
2018-11-27T21:09:55.349Z,4.80
2018-11-27T21:12:26.337Z,4.80
2018-11-27T21:14:59.993Z,5.27
2018-11-27T21:17:33.545Z,4.60
2018-11-27T21:20:05.276Z,5.40
2018-11-27T21:22:34.906Z,5.03
2018-11-27T21:25:06.084Z,5.40
2018-11-27T21:27:36.121Z,5.33
2018-11-27T21:30:14.055Z,5.27
2018-11-27T21:32:44.418Z,5.70
2018-11-27T21:35:15.886Z,5.40
2018-11-27T21:37:45.517Z,5.10
2018-11-27T21:40:16.084Z,5.33
2018-11-27T21:42:46.693Z,5.20
2018-11-27T21:45:22.969Z,5.87
2018-11-27T21:47:55.389Z,5.80
2018-11-27T21:50:31.450Z,6.13
2018-11-27T21:53:03.332Z,6.50
2018-11-27T21:55:35.463Z,6.77
2018-11-27T21:58:09.440Z,6.60
2018-11-27T22:00:42.808Z,6.37
2018-11-27T22:03:16.857Z,6.23
2018-11-27T22:05:50.042Z,6.60
2018-11-27T22:08:22.653Z,6.97
2018-11-27T22:10:51.762Z,6.50
2018-11-27T22:13:23.100Z,6.30
2018-11-27T22:15:57.093Z,6.50
2018-11-27T22:18:30.584Z,6.63
2018-11-27T22:21:03.432Z,6.50
2018-11-27T22:23:38.182Z,6.90
2018-11-27T22:26:10.932Z,6.73
2018-11-27T22:28:42.573Z,6.33
2018-11-27T22:31:13.228Z,6.20
2018-11-27T22:33:47.041Z,6.33
2018-11-27T22:36:20.663Z,6.10
2018-11-27T22:38:51.848Z,6.40
2018-11-27T22:41:22.537Z,6.13
2018-11-27T22:43:53.420Z,6.43
2018-11-27T22:46:24.464Z,5.70
2018-11-27T22:48:55.275Z,6.10
2018-11-27T22:51:25.561Z,5.93
2018-11-27T22:53:58.485Z,6.10
2018-11-27T22:56:28.802Z,5.80
2018-11-27T23:01:46.852Z,6.00
2018-11-27T23:04:17.645Z,6.10
2018-11-27T23:06:46.914Z,5.80
2018-11-27T23:09:16.162Z,5.90
2018-11-27T23:11:46.614Z,5.60
2018-11-27T23:14:15.932Z,6.00
2018-11-27T23:16:47.550Z,5.73
2018-11-27T23:19:19.269Z,5.10
2018-11-27T23:22:00.624Z,5.17
2018-11-27T23:24:30.835Z,4.83
2018-11-27T23:26:59.737Z,5.03
2018-11-27T23:29:29.460Z,4.83
2018-11-27T23:31:58.705Z,4.40
2018-11-27T23:34:27.629Z,5.00
2018-11-27T23:36:56.846Z,4.20
2018-11-27T23:39:25.810Z,4.50
2018-11-27T23:41:55.025Z,3.90
2018-11-27T23:44:23.935Z,4.20
2018-11-27T23:46:53.073Z,4.17
2018-11-27T23:49:22.019Z,4.37
2018-11-27T23:51:50.937Z,4.10
2018-11-27T23:54:19.821Z,3.67
2018-11-27T23:56:48.975Z,4.00
2018-11-27T23:59:18.084Z,3.90
